sensor_id;sensor_type;location;lat;lon;timestamp;P1;durP1;ratioP1;P2;durP2;ratioP2
1925;SDS011;964;42.606;23.588;2023-07-13T00:00:46;6.33;;;4.40;;
1925;SDS011;964;42.606;23.588;2023-07-13T00:03:12;6.20;;;4.53;;
1925;SDS011;964;42.606;23.588;2023-07-13T00:05:40;7.27;;;5.17;;
1925;SDS011;964;42.606;23.588;2023-07-13T00:08:07;7.60;;;4.20;;
1925;SDS011;964;42.606;23.588;2023-07-13T00:10:38;6.17;;;4.90;;
1925;SDS011;964;42.606;23.588;2023-07-13T00:13:07;9.20;;;5.43;;
1925;SDS011;964;42.606;23.588;2023-07-13T00:15:33;6.10;;;5.10;;
1925;SDS011;964;42.606;23.588;2023-07-13T00:18:00;5.83;;;4.60;;
1925;SDS011;964;42.606;23.588;2023-07-13T00:20:27;7.37;;;5.20;;
1925;SDS011;964;42.606;23.588;2023-07-13T00:22:55;5.80;;;4.80;;
1925;SDS011;964;42.606;23.588;2023-07-13T00:25:22;6.83;;;5.30;;
1925;SDS011;964;42.606;23.588;2023-07-13T00:27:53;5.30;;;4.80;;
1925;SDS011;964;42.606;23.588;2023-07-13T00:30:20;6.77;;;4.40;;
1925;SDS011;964;42.606;23.588;2023-07-13T00:32:47;5.90;;;5.30;;
1925;SDS011;964;42.606;23.588;2023-07-13T00:35:14;6.50;;;4.70;;
1925;SDS011;964;42.606;23.588;2023-07-13T00:37:41;5.83;;;4.87;;
1925;SDS011;964;42.606;23.588;2023-07-13T00:40:10;7.13;;;5.07;;
1925;SDS011;964;42.606;23.588;2023-07-13T00:42:39;5.33;;;4.83;;
1925;SDS011;964;42.606;23.588;2023-07-13T00:46:02;5.50;;;5.00;;
1925;SDS011;964;42.606;23.588;2023-07-13T00:48:12;6.33;;;5.40;;
1925;SDS011;964;42.606;23.588;2023-07-13T00:50:41;5.40;;;4.57;;
1925;SDS011;964;42.606;23.588;2023-07-13T00:53:10;8.70;;;5.13;;
1925;SDS011;964;42.606;23.588;2023-07-13T00:55:39;7.90;;;4.80;;
1925;SDS011;964;42.606;23.588;2023-07-13T00:58:05;6.10;;;4.67;;
1925;SDS011;964;42.606;23.588;2023-07-13T01:00:33;17.63;;;6.30;;
1925;SDS011;964;42.606;23.588;2023-07-13T01:03:02;14.27;;;6.50;;
1925;SDS011;964;42.606;23.588;2023-07-13T01:05:30;22.27;;;7.00;;
1925;SDS011;964;42.606;23.588;2023-07-13T01:07:59;38.63;;;9.03;;
1925;SDS011;964;42.606;23.588;2023-07-13T01:10:27;27.07;;;7.07;;
1925;SDS011;964;42.606;23.588;2023-07-13T01:12:55;9.27;;;5.40;;
1925;SDS011;964;42.606;23.588;2023-07-13T01:15:35;6.20;;;5.63;;
1925;SDS011;964;42.606;23.588;2023-07-13T01:18:05;8.10;;;5.63;;
1925;SDS011;964;42.606;23.588;2023-07-13T01:20:33;7.60;;;5.80;;
1925;SDS011;964;42.606;23.588;2023-07-13T01:23:03;12.33;;;6.70;;
1925;SDS011;964;42.606;23.588;2023-07-13T01:25:32;8.27;;;6.53;;
1925;SDS011;964;42.606;23.588;2023-07-13T01:28:00;8.80;;;5.50;;
1925;SDS011;964;42.606;23.588;2023-07-13T01:30:27;6.80;;;5.83;;
1925;SDS011;964;42.606;23.588;2023-07-13T01:32:53;7.70;;;6.00;;
1925;SDS011;964;42.606;23.588;2023-07-13T01:35:20;6.77;;;5.73;;
1925;SDS011;964;42.606;23.588;2023-07-13T01:37:47;6.10;;;5.40;;
1925;SDS011;964;42.606;23.588;2023-07-13T01:40:15;6.60;;;5.60;;
1925;SDS011;964;42.606;23.588;2023-07-13T01:42:41;6.27;;;5.50;;
1925;SDS011;964;42.606;23.588;2023-07-13T01:45:08;6.23;;;5.67;;
1925;SDS011;964;42.606;23.588;2023-07-13T01:47:35;7.40;;;6.27;;
1925;SDS011;964;42.606;23.588;2023-07-13T01:50:02;7.80;;;5.97;;
1925;SDS011;964;42.606;23.588;2023-07-13T01:52:28;8.20;;;6.10;;
1925;SDS011;964;42.606;23.588;2023-07-13T01:54:55;9.20;;;6.20;;
1925;SDS011;964;42.606;23.588;2023-07-13T01:57:23;11.73;;;5.97;;
1925;SDS011;964;42.606;23.588;2023-07-13T01:59:50;11.70;;;5.27;;
1925;SDS011;964;42.606;23.588;2023-07-13T02:02:17;8.40;;;5.67;;
1925;SDS011;964;42.606;23.588;2023-07-13T02:04:43;12.07;;;5.20;;
1925;SDS011;964;42.606;23.588;2023-07-13T02:07:10;7.53;;;6.10;;
1925;SDS011;964;42.606;23.588;2023-07-13T02:09:37;10.60;;;5.73;;
1925;SDS011;964;42.606;23.588;2023-07-13T02:12:04;7.47;;;5.67;;
1925;SDS011;964;42.606;23.588;2023-07-13T02:14:33;10.47;;;4.90;;
1925;SDS011;964;42.606;23.588;2023-07-13T02:17:02;6.63;;;4.50;;
1925;SDS011;964;42.606;23.588;2023-07-13T02:19:29;6.23;;;5.30;;
1925;SDS011;964;42.606;23.588;2023-07-13T02:21:55;5.93;;;5.30;;
1925;SDS011;964;42.606;23.588;2023-07-13T02:24:22;6.60;;;4.97;;
1925;SDS011;964;42.606;23.588;2023-07-13T02:26:49;6.70;;;5.50;;
1925;SDS011;964;42.606;23.588;2023-07-13T02:29:15;6.33;;;5.10;;
1925;SDS011;964;42.606;23.588;2023-07-13T02:31:43;7.27;;;6.13;;
1925;SDS011;964;42.606;23.588;2023-07-13T02:34:10;8.37;;;4.90;;
1925;SDS011;964;42.606;23.588;2023-07-13T02:36:37;6.57;;;5.30;;
1925;SDS011;964;42.606;23.588;2023-07-13T02:39:04;12.93;;;5.70;;
1925;SDS011;964;42.606;23.588;2023-07-13T02:41:31;7.07;;;5.60;;
1925;SDS011;964;42.606;23.588;2023-07-13T02:43:58;8.53;;;6.00;;
1925;SDS011;964;42.606;23.588;2023-07-13T02:46:29;6.43;;;5.73;;
1925;SDS011;964;42.606;23.588;2023-07-13T02:48:57;7.67;;;5.53;;
1925;SDS011;964;42.606;23.588;2023-07-13T02:51:24;11.33;;;6.20;;
1925;SDS011;964;42.606;23.588;2023-07-13T02:53:50;6.43;;;5.30;;
1925;SDS011;964;42.606;23.588;2023-07-13T02:56:17;8.40;;;6.20;;
1925;SDS011;964;42.606;23.588;2023-07-13T02:58:45;5.90;;;5.27;;
1925;SDS011;964;42.606;23.588;2023-07-13T03:01:12;7.03;;;5.40;;
1925;SDS011;964;42.606;23.588;2023-07-13T03:03:43;5.43;;;4.90;;
1925;SDS011;964;42.606;23.588;2023-07-13T03:06:12;7.63;;;6.00;;
1925;SDS011;964;42.606;23.588;2023-07-13T03:08:40;7.20;;;5.93;;
1925;SDS011;964;42.606;23.588;2023-07-13T03:11:07;6.73;;;4.80;;
1925;SDS011;964;42.606;23.588;2023-07-13T03:13:36;9.70;;;5.40;;
1925;SDS011;964;42.606;23.588;2023-07-13T03:16:03;7.20;;;4.70;;
1925;SDS011;964;42.606;23.588;2023-07-13T03:18:30;6.17;;;4.90;;
1925;SDS011;964;42.606;23.588;2023-07-13T03:20:57;7.33;;;5.33;;
1925;SDS011;964;42.606;23.588;2023-07-13T03:23:25;5.30;;;4.80;;
1925;SDS011;964;42.606;23.588;2023-07-13T03:26:00;6.50;;;5.27;;
1925;SDS011;964;42.606;23.588;2023-07-13T03:28:28;9.97;;;5.50;;
1925;SDS011;964;42.606;23.588;2023-07-13T03:30:58;8.80;;;5.63;;
1925;SDS011;964;42.606;23.588;2023-07-13T03:33:26;14.70;;;5.93;;
1925;SDS011;964;42.606;23.588;2023-07-13T03:35:52;8.17;;;5.47;;
1925;SDS011;964;42.606;23.588;2023-07-13T03:38:19;8.07;;;5.70;;
1925;SDS011;964;42.606;23.588;2023-07-13T03:40:47;13.90;;;6.17;;
1925;SDS011;964;42.606;23.588;2023-07-13T03:43:14;9.30;;;6.20;;
1925;SDS011;964;42.606;23.588;2023-07-13T03:45:41;9.77;;;6.03;;
1925;SDS011;964;42.606;23.588;2023-07-13T03:48:08;7.10;;;5.63;;
1925;SDS011;964;42.606;23.588;2023-07-13T03:50:36;7.27;;;5.50;;
1925;SDS011;964;42.606;23.588;2023-07-13T03:53:03;9.93;;;6.20;;
1925;SDS011;964;42.606;23.588;2023-07-13T03:55:30;7.00;;;6.30;;
1925;SDS011;964;42.606;23.588;2023-07-13T03:57:59;10.80;;;6.17;;
1925;SDS011;964;42.606;23.588;2023-07-13T04:00:27;27.03;;;7.10;;
1925;SDS011;964;42.606;23.588;2023-07-13T04:02:53;10.23;;;6.47;;
1925;SDS011;964;42.606;23.588;2023-07-13T04:05:20;7.90;;;5.77;;
1925;SDS011;964;42.606;23.588;2023-07-13T04:07:47;7.97;;;5.80;;
1925;SDS011;964;42.606;23.588;2023-07-13T04:10:13;10.70;;;6.30;;
1925;SDS011;964;42.606;23.588;2023-07-13T04:12:40;8.07;;;6.10;;
1925;SDS011;964;42.606;23.588;2023-07-13T04:15:09;9.83;;;6.70;;
1925;SDS011;964;42.606;23.588;2023-07-13T04:17:35;6.60;;;6.00;;
1925;SDS011;964;42.606;23.588;2023-07-13T04:20:02;9.47;;;6.93;;
1925;SDS011;964;42.606;23.588;2023-07-13T04:22:30;8.63;;;6.10;;
1925;SDS011;964;42.606;23.588;2023-07-13T04:24:56;12.80;;;6.87;;
1925;SDS011;964;42.606;23.588;2023-07-13T04:27:23;8.63;;;6.70;;
1925;SDS011;964;42.606;23.588;2023-07-13T04:29:50;6.60;;;5.90;;
1925;SDS011;964;42.606;23.588;2023-07-13T04:32:18;18.97;;;9.93;;
1925;SDS011;964;42.606;23.588;2023-07-13T04:34:45;14.07;;;8.23;;
1925;SDS011;964;42.606;23.588;2023-07-13T04:37:11;10.63;;;7.43;;
1925;SDS011;964;42.606;23.588;2023-07-13T04:39:38;9.53;;;6.30;;
1925;SDS011;964;42.606;23.588;2023-07-13T04:42:05;8.90;;;6.70;;
1925;SDS011;964;42.606;23.588;2023-07-13T04:44:32;7.97;;;6.10;;
1925;SDS011;964;42.606;23.588;2023-07-13T04:46:58;8.50;;;6.43;;
1925;SDS011;964;42.606;23.588;2023-07-13T04:49:26;22.10;;;13.47;;
1925;SDS011;964;42.606;23.588;2023-07-13T04:51:53;10.93;;;7.97;;
1925;SDS011;964;42.606;23.588;2023-07-13T04:54:20;11.37;;;6.50;;
1925;SDS011;964;42.606;23.588;2023-07-13T04:56:47;7.27;;;6.57;;
1925;SDS011;964;42.606;23.588;2023-07-13T04:59:14;7.33;;;6.70;;
1925;SDS011;964;42.606;23.588;2023-07-13T05:01:41;7.20;;;6.57;;
1925;SDS011;964;42.606;23.588;2023-07-13T05:04:07;12.07;;;6.80;;
1925;SDS011;964;42.606;23.588;2023-07-13T05:06:35;10.87;;;8.00;;
1925;SDS011;964;42.606;23.588;2023-07-13T05:09:02;9.10;;;6.60;;
1925;SDS011;964;42.606;23.588;2023-07-13T05:11:29;8.43;;;6.47;;
1925;SDS011;964;42.606;23.588;2023-07-13T05:13:56;8.30;;;7.50;;
1925;SDS011;964;42.606;23.588;2023-07-13T05:16:23;10.40;;;6.80;;
1925;SDS011;964;42.606;23.588;2023-07-13T05:18:50;13.93;;;7.27;;
1925;SDS011;964;42.606;23.588;2023-07-13T05:21:16;8.87;;;7.17;;
1925;SDS011;964;42.606;23.588;2023-07-13T05:23:44;9.50;;;7.57;;
1925;SDS011;964;42.606;23.588;2023-07-13T05:26:11;11.30;;;7.63;;
1925;SDS011;964;42.606;23.588;2023-07-13T05:28:38;9.00;;;8.10;;
1925;SDS011;964;42.606;23.588;2023-07-13T05:31:06;8.40;;;7.60;;
1925;SDS011;964;42.606;23.588;2023-07-13T05:33:33;11.30;;;8.30;;
1925;SDS011;964;42.606;23.588;2023-07-13T05:36:00;9.20;;;7.30;;
1925;SDS011;964;42.606;23.588;2023-07-13T05:38:26;9.13;;;8.23;;
1925;SDS011;964;42.606;23.588;2023-07-13T05:40:55;8.83;;;7.97;;
1925;SDS011;964;42.606;23.588;2023-07-13T05:43:23;10.73;;;8.10;;
1925;SDS011;964;42.606;23.588;2023-07-13T05:45:51;10.40;;;8.13;;
1925;SDS011;964;42.606;23.588;2023-07-13T05:48:18;8.13;;;7.40;;
1925;SDS011;964;42.606;23.588;2023-07-13T05:50:45;9.23;;;8.30;;
1925;SDS011;964;42.606;23.588;2023-07-13T05:53:12;8.43;;;7.60;;
1925;SDS011;964;42.606;23.588;2023-07-13T05:55:40;8.80;;;7.90;;
1925;SDS011;964;42.606;23.588;2023-07-13T05:58:12;9.17;;;8.27;;
1925;SDS011;964;42.606;23.588;2023-07-13T06:00:38;8.80;;;8.00;;
1925;SDS011;964;42.606;23.588;2023-07-13T06:03:05;8.50;;;7.70;;
1925;SDS011;964;42.606;23.588;2023-07-13T06:05:32;10.73;;;7.53;;
1925;SDS011;964;42.606;23.588;2023-07-13T06:07:59;10.00;;;9.10;;
1925;SDS011;964;42.606;23.588;2023-07-13T06:10:26;9.33;;;8.43;;
1925;SDS011;964;42.606;23.588;2023-07-13T06:12:53;10.53;;;8.10;;
1925;SDS011;964;42.606;23.588;2023-07-13T06:15:21;8.23;;;7.53;;
1925;SDS011;964;42.606;23.588;2023-07-13T06:17:48;8.57;;;7.67;;
1925;SDS011;964;42.606;23.588;2023-07-13T06:20:15;8.67;;;7.87;;
1925;SDS011;964;42.606;23.588;2023-07-13T06:22:42;11.20;;;9.37;;
1925;SDS011;964;42.606;23.588;2023-07-13T06:25:08;11.30;;;8.90;;
1925;SDS011;964;42.606;23.588;2023-07-13T06:27:35;8.80;;;7.90;;
1925;SDS011;964;42.606;23.588;2023-07-13T06:30:02;11.87;;;8.73;;
1925;SDS011;964;42.606;23.588;2023-07-13T06:32:31;9.23;;;8.33;;
1925;SDS011;964;42.606;23.588;2023-07-13T06:34:57;14.30;;;9.50;;
1925;SDS011;964;42.606;23.588;2023-07-13T06:37:24;10.40;;;8.70;;
1925;SDS011;964;42.606;23.588;2023-07-13T06:39:51;9.73;;;8.70;;
1925;SDS011;964;42.606;23.588;2023-07-13T06:42:17;13.33;;;8.93;;
1925;SDS011;964;42.606;23.588;2023-07-13T06:44:44;11.00;;;9.10;;
1925;SDS011;964;42.606;23.588;2023-07-13T06:47:11;10.20;;;8.60;;
1925;SDS011;964;42.606;23.588;2023-07-13T06:49:39;14.43;;;9.70;;
1925;SDS011;964;42.606;23.588;2023-07-13T06:52:06;13.53;;;8.40;;
1925;SDS011;964;42.606;23.588;2023-07-13T06:54:32;8.60;;;7.77;;
1925;SDS011;964;42.606;23.588;2023-07-13T06:57:00;13.10;;;8.67;;
1925;SDS011;964;42.606;23.588;2023-07-13T06:59:26;9.53;;;8.67;;
1925;SDS011;964;42.606;23.588;2023-07-13T07:01:53;11.20;;;8.30;;
1925;SDS011;964;42.606;23.588;2023-07-13T07:04:20;15.40;;;8.50;;
1925;SDS011;964;42.606;23.588;2023-07-13T07:06:48;12.23;;;7.90;;
1925;SDS011;964;42.606;23.588;2023-07-13T07:09:14;8.73;;;7.80;;
1925;SDS011;964;42.606;23.588;2023-07-13T07:11:42;13.73;;;8.93;;
1925;SDS011;964;42.606;23.588;2023-07-13T07:14:09;9.37;;;8.47;;
1925;SDS011;964;42.606;23.588;2023-07-13T07:16:35;12.23;;;8.53;;
1925;SDS011;964;42.606;23.588;2023-07-13T07:19:02;9.70;;;7.77;;
1925;SDS011;964;42.606;23.588;2023-07-13T07:21:28;9.37;;;8.47;;
1925;SDS011;964;42.606;23.588;2023-07-13T07:23:57;9.17;;;8.27;;
1925;SDS011;964;42.606;23.588;2023-07-13T07:26:24;9.60;;;8.53;;
1925;SDS011;964;42.606;23.588;2023-07-13T07:28:51;9.30;;;7.63;;
1925;SDS011;964;42.606;23.588;2023-07-13T07:31:18;9.27;;;8.37;;
1925;SDS011;964;42.606;23.588;2023-07-13T07:33:44;9.00;;;8.20;;
1925;SDS011;964;42.606;23.588;2023-07-13T07:36:11;9.27;;;8.20;;
1925;SDS011;964;42.606;23.588;2023-07-13T07:38:37;9.20;;;8.30;;
1925;SDS011;964;42.606;23.588;2023-07-13T07:41:05;8.30;;;7.37;;
1925;SDS011;964;42.606;23.588;2023-07-13T07:43:32;8.33;;;7.53;;
1925;SDS011;964;42.606;23.588;2023-07-13T07:45:59;10.33;;;7.90;;
1925;SDS011;964;42.606;23.588;2023-07-13T07:48:25;10.47;;;8.30;;
1925;SDS011;964;42.606;23.588;2023-07-13T07:50:52;8.70;;;7.80;;
1925;SDS011;964;42.606;23.588;2023-07-13T07:53:18;9.33;;;8.30;;
1925;SDS011;964;42.606;23.588;2023-07-13T07:55:45;8.67;;;7.90;;
1925;SDS011;964;42.606;23.588;2023-07-13T07:58:14;9.40;;;7.93;;
1925;SDS011;964;42.606;23.588;2023-07-13T08:00:40;8.50;;;7.70;;
1925;SDS011;964;42.606;23.588;2023-07-13T08:03:07;8.50;;;7.80;;
1925;SDS011;964;42.606;23.588;2023-07-13T08:05:34;12.30;;;8.57;;
1925;SDS011;964;42.606;23.588;2023-07-13T08:08:01;16.10;;;9.43;;
1925;SDS011;964;42.606;23.588;2023-07-13T08:10:28;14.80;;;7.60;;
1925;SDS011;964;42.606;23.588;2023-07-13T08:12:55;7.53;;;6.80;;
1925;SDS011;964;42.606;23.588;2023-07-13T08:15:23;8.52;;;7.57;;
1925;SDS011;964;42.606;23.588;2023-07-13T08:17:49;8.15;;;7.35;;
1925;SDS011;964;42.606;23.588;2023-07-13T08:20:16;14.93;;;7.72;;
1925;SDS011;964;42.606;23.588;2023-07-13T08:22:43;12.48;;;7.32;;
1925;SDS011;964;42.606;23.588;2023-07-13T08:25:10;8.05;;;7.32;;
1925;SDS011;964;42.606;23.588;2023-07-13T08:27:37;10.40;;;7.18;;
1925;SDS011;964;42.606;23.588;2023-07-13T08:30:04;9.00;;;8.07;;
1925;SDS011;964;42.606;23.588;2023-07-13T08:32:35;9.38;;;7.88;;
1925;SDS011;964;42.606;23.588;2023-07-13T08:35:04;8.57;;;7.78;;
1925;SDS011;964;42.606;23.588;2023-07-13T08:37:31;11.02;;;7.28;;
1925;SDS011;964;42.606;23.588;2023-07-13T08:39:58;7.50;;;6.80;;
1925;SDS011;964;42.606;23.588;2023-07-13T08:42:32;8.57;;;7.53;;
1925;SDS011;964;42.606;23.588;2023-07-13T08:45:07;7.90;;;7.18;;
1925;SDS011;964;42.606;23.588;2023-07-13T08:47:40;10.25;;;7.93;;
1925;SDS011;964;42.606;23.588;2023-07-13T08:50:12;8.82;;;7.97;;
1925;SDS011;964;42.606;23.588;2023-07-13T08:52:41;8.38;;;7.20;;
1925;SDS011;964;42.606;23.588;2023-07-13T08:55:11;9.52;;;7.18;;
1925;SDS011;964;42.606;23.588;2023-07-13T08:57:43;8.38;;;7.57;;
1925;SDS011;964;42.606;23.588;2023-07-13T09:00:15;12.45;;;8.00;;
1925;SDS011;964;42.606;23.588;2023-07-13T09:02:44;8.15;;;7.20;;
1925;SDS011;964;42.606;23.588;2023-07-13T09:05:15;7.95;;;7.03;;
1925;SDS011;964;42.606;23.588;2023-07-13T09:07:54;9.40;;;7.70;;
1925;SDS011;964;42.606;23.588;2023-07-13T09:10:28;9.23;;;8.18;;
1925;SDS011;964;42.606;23.588;2023-07-13T09:13:07;8.07;;;7.38;;
1925;SDS011;964;42.606;23.588;2023-07-13T09:15:46;9.90;;;8.15;;
1925;SDS011;964;42.606;23.588;2023-07-13T09:18:18;11.25;;;8.10;;
1925;SDS011;964;42.606;23.588;2023-07-13T09:20:51;8.48;;;7.57;;
1925;SDS011;964;42.606;23.588;2023-07-13T09:23:22;9.52;;;8.52;;
1925;SDS011;964;42.606;23.588;2023-07-13T09:25:51;8.80;;;7.65;;
1925;SDS011;964;42.606;23.588;2023-07-13T09:28:22;8.48;;;7.68;;
1925;SDS011;964;42.606;23.588;2023-07-13T09:30:51;9.60;;;7.50;;
1925;SDS011;964;42.606;23.588;2023-07-13T09:33:23;8.75;;;7.55;;
1925;SDS011;964;42.606;23.588;2023-07-13T09:35:54;8.93;;;7.97;;
1925;SDS011;964;42.606;23.588;2023-07-13T09:38:22;11.32;;;7.57;;
1925;SDS011;964;42.606;23.588;2023-07-13T09:40:58;8.65;;;7.85;;
1925;SDS011;964;42.606;23.588;2023-07-13T09:43:34;9.32;;;8.25;;
1925;SDS011;964;42.606;23.588;2023-07-13T09:46:01;8.57;;;7.97;;
1925;SDS011;964;42.606;23.588;2023-07-13T09:48:34;8.70;;;7.82;;
1925;SDS011;964;42.606;23.588;2023-07-13T09:51:06;8.77;;;7.95;;
1925;SDS011;964;42.606;23.588;2023-07-13T09:53:39;8.38;;;7.45;;
1925;SDS011;964;42.606;23.588;2023-07-13T09:56:11;7.50;;;6.80;;
1925;SDS011;964;42.606;23.588;2023-07-13T09:58:45;8.25;;;7.13;;
1925;SDS011;964;42.606;23.588;2023-07-13T10:01:12;12.80;;;6.95;;
1925;SDS011;964;42.606;23.588;2023-07-13T10:03:51;8.93;;;8.00;;
1925;SDS011;964;42.606;23.588;2023-07-13T10:06:20;10.30;;;7.15;;
1925;SDS011;964;42.606;23.588;2023-07-13T10:08:48;8.05;;;7.32;;
1925;SDS011;964;42.606;23.588;2023-07-13T10:11:17;9.95;;;7.93;;
1925;SDS011;964;42.606;23.588;2023-07-13T10:13:49;7.68;;;6.97;;
1925;SDS011;964;42.606;23.588;2023-07-13T10:16:21;8.32;;;7.45;;
1925;SDS011;964;42.606;23.588;2023-07-13T10:18:50;8.50;;;7.70;;
1925;SDS011;964;42.606;23.588;2023-07-13T10:21:23;9.30;;;7.75;;
1925;SDS011;964;42.606;23.588;2023-07-13T10:23:55;7.90;;;7.13;;
1925;SDS011;964;42.606;23.588;2023-07-13T10:26:31;8.50;;;7.80;;
1925;SDS011;964;42.606;23.588;2023-07-13T10:29:00;8.63;;;7.82;;
1925;SDS011;964;42.606;23.588;2023-07-13T10:31:32;8.20;;;7.43;;
1925;SDS011;964;42.606;23.588;2023-07-13T10:34:09;8.18;;;7.32;;
1925;SDS011;964;42.606;23.588;2023-07-13T10:36:38;8.32;;;7.65;;
1925;SDS011;964;42.606;23.588;2023-07-13T10:39:09;10.30;;;7.97;;
1925;SDS011;964;42.606;23.588;2023-07-13T10:41:42;7.78;;;7.03;;
1925;SDS011;964;42.606;23.588;2023-07-13T10:44:16;9.80;;;7.60;;
1925;SDS011;964;42.606;23.588;2023-07-13T10:46:50;8.23;;;6.50;;
1925;SDS011;964;42.606;23.588;2023-07-13T10:49:19;9.70;;;6.63;;
1925;SDS011;964;42.606;23.588;2023-07-13T10:51:47;7.60;;;6.85;;
1925;SDS011;964;42.606;23.588;2023-07-13T10:54:15;11.20;;;6.13;;
1925;SDS011;964;42.606;23.588;2023-07-13T10:56:44;7.40;;;6.78;;
1925;SDS011;964;42.606;23.588;2023-07-13T10:59:13;7.90;;;7.10;;
1925;SDS011;964;42.606;23.588;2023-07-13T11:01:49;7.03;;;6.32;;
1925;SDS011;964;42.606;23.588;2023-07-13T11:04:22;6.63;;;5.82;;
1925;SDS011;964;42.606;23.588;2023-07-13T11:06:52;7.25;;;6.50;;
1925;SDS011;964;42.606;23.588;2023-07-13T11:09:33;9.18;;;6.95;;
1925;SDS011;964;42.606;23.588;2023-07-13T11:12:06;8.77;;;7.10;;
1925;SDS011;964;42.606;23.588;2023-07-13T11:14:36;8.45;;;6.68;;
1925;SDS011;964;42.606;23.588;2023-07-13T11:19:53;7.95;;;6.95;;
1925;SDS011;964;42.606;23.588;2023-07-13T11:22:24;12.23;;;7.15;;
1925;SDS011;964;42.606;23.588;2023-07-13T11:25:20;8.55;;;6.78;;
1925;SDS011;964;42.606;23.588;2023-07-13T11:27:52;9.40;;;7.03;;
1925;SDS011;964;42.606;23.588;2023-07-13T11:30:35;8.40;;;7.53;;
1925;SDS011;964;42.606;23.588;2023-07-13T11:33:15;11.20;;;7.43;;
1925;SDS011;964;42.606;23.588;2023-07-13T11:35:48;7.60;;;6.90;;
1925;SDS011;964;42.606;23.588;2023-07-13T11:38:18;7.40;;;6.70;;
1925;SDS011;964;42.606;23.588;2023-07-13T11:40:47;8.48;;;6.63;;
1925;SDS011;964;42.606;23.588;2023-07-13T11:43:16;8.35;;;6.60;;
1925;SDS011;964;42.606;23.588;2023-07-13T11:45:43;7.55;;;6.78;;
1925;SDS011;964;42.606;23.588;2023-07-13T11:48:18;9.38;;;7.03;;
1925;SDS011;964;42.606;23.588;2023-07-13T11:50:54;8.07;;;7.25;;
1925;SDS011;964;42.606;23.588;2023-07-13T11:53:24;7.75;;;7.13;;
1925;SDS011;964;42.606;23.588;2023-07-13T11:55:53;7.35;;;6.75;;
1925;SDS011;964;42.606;23.588;2023-07-13T11:58:21;7.20;;;6.60;;
1925;SDS011;964;42.606;23.588;2023-07-13T12:00:53;7.85;;;7.03;;
1925;SDS011;964;42.606;23.588;2023-07-13T12:03:22;20.23;;;6.70;;
1925;SDS011;964;42.606;23.588;2023-07-13T12:05:58;8.35;;;7.47;;
1925;SDS011;964;42.606;23.588;2023-07-13T12:08:26;8.38;;;6.70;;
1925;SDS011;964;42.606;23.588;2023-07-13T12:10:56;7.72;;;6.55;;
1925;SDS011;964;42.606;23.588;2023-07-13T12:13:26;17.88;;;7.10;;
1925;SDS011;964;42.606;23.588;2023-07-13T12:15:53;7.15;;;6.43;;
1925;SDS011;964;42.606;23.588;2023-07-13T12:18:23;7.38;;;6.68;;
1925;SDS011;964;42.606;23.588;2023-07-13T12:20:55;7.80;;;6.93;;
1925;SDS011;964;42.606;23.588;2023-07-13T12:23:26;6.65;;;6.13;;
1925;SDS011;964;42.606;23.588;2023-07-13T12:25:55;6.90;;;6.20;;
1925;SDS011;964;42.606;23.588;2023-07-13T12:28:30;10.57;;;6.93;;
1925;SDS011;964;42.606;23.588;2023-07-13T12:30:59;7.88;;;7.18;;
1925;SDS011;964;42.606;23.588;2023-07-13T12:33:27;9.52;;;6.15;;
1925;SDS011;964;42.606;23.588;2023-07-13T12:35:55;8.65;;;6.80;;
1925;SDS011;964;42.606;23.588;2023-07-13T12:38:25;12.85;;;7.13;;
1925;SDS011;964;42.606;23.588;2023-07-13T12:40:52;8.63;;;6.80;;
1925;SDS011;964;42.606;23.588;2023-07-13T12:43:20;7.75;;;6.47;;
1925;SDS011;964;42.606;23.588;2023-07-13T12:45:54;8.88;;;6.25;;
1925;SDS011;964;42.606;23.588;2023-07-13T12:48:22;8.52;;;6.68;;
1925;SDS011;964;42.606;23.588;2023-07-13T12:50:50;8.00;;;7.25;;
1925;SDS011;964;42.606;23.588;2023-07-13T12:53:18;6.97;;;6.28;;
1925;SDS011;964;42.606;23.588;2023-07-13T12:55:50;6.57;;;5.97;;
1925;SDS011;964;42.606;23.588;2023-07-13T12:58:22;7.95;;;7.18;;
1925;SDS011;964;42.606;23.588;2023-07-13T13:00:53;7.75;;;6.53;;
1925;SDS011;964;42.606;23.588;2023-07-13T13:03:24;8.77;;;6.15;;
1925;SDS011;964;42.606;23.588;2023-07-13T13:05:56;7.88;;;6.43;;
1925;SDS011;964;42.606;23.588;2023-07-13T13:08:25;8.43;;;6.85;;
1925;SDS011;964;42.606;23.588;2023-07-13T13:10:53;9.48;;;7.68;;
1925;SDS011;964;42.606;23.588;2023-07-13T13:13:20;9.60;;;6.55;;
1925;SDS011;964;42.606;23.588;2023-07-13T13:15:47;7.22;;;6.47;;
1925;SDS011;964;42.606;23.588;2023-07-13T13:18:17;8.48;;;7.68;;
1925;SDS011;964;42.606;23.588;2023-07-13T13:20:44;7.82;;;6.82;;
1925;SDS011;964;42.606;23.588;2023-07-13T13:23:12;7.18;;;6.47;;
1925;SDS011;964;42.606;23.588;2023-07-13T13:25:42;7.40;;;6.35;;
1925;SDS011;964;42.606;23.588;2023-07-13T13:28:14;7.40;;;6.45;;
1925;SDS011;964;42.606;23.588;2023-07-13T13:30:42;7.78;;;6.35;;
1925;SDS011;964;42.606;23.588;2023-07-13T13:33:10;6.95;;;6.10;;
1925;SDS011;964;42.606;23.588;2023-07-13T13:35:38;7.05;;;5.60;;
1925;SDS011;964;42.606;23.588;2023-07-13T13:38:09;7.53;;;6.82;;
1925;SDS011;964;42.606;23.588;2023-07-13T13:40:37;10.18;;;6.55;;
1925;SDS011;964;42.606;23.588;2023-07-13T13:43:07;7.60;;;6.13;;
1925;SDS011;964;42.606;23.588;2023-07-13T13:45:42;10.75;;;6.10;;
1925;SDS011;964;42.606;23.588;2023-07-13T13:48:13;7.32;;;6.35;;
1925;SDS011;964;42.606;23.588;2023-07-13T13:50:41;6.65;;;6.05;;
1925;SDS011;964;42.606;23.588;2023-07-13T13:53:09;7.03;;;6.30;;
1925;SDS011;964;42.606;23.588;2023-07-13T13:55:37;9.20;;;6.15;;
1925;SDS011;964;42.606;23.588;2023-07-13T13:58:06;10.35;;;6.20;;
1925;SDS011;964;42.606;23.588;2023-07-13T14:00:35;7.10;;;6.40;;
1925;SDS011;964;42.606;23.588;2023-07-13T14:03:02;7.95;;;6.55;;
1925;SDS011;964;42.606;23.588;2023-07-13T14:05:32;6.65;;;5.95;;
1925;SDS011;964;42.606;23.588;2023-07-13T14:07:58;7.65;;;6.10;;
1925;SDS011;964;42.606;23.588;2023-07-13T14:10:25;7.10;;;6.40;;
1925;SDS011;964;42.606;23.588;2023-07-13T14:12:53;8.60;;;6.82;;
1925;SDS011;964;42.606;23.588;2023-07-13T14:15:23;9.23;;;6.00;;
1925;SDS011;964;42.606;23.588;2023-07-13T14:17:52;11.02;;;6.90;;
1925;SDS011;964;42.606;23.588;2023-07-13T14:20:19;7.28;;;6.50;;
1925;SDS011;964;42.606;23.588;2023-07-13T14:22:49;9.32;;;6.18;;
1925;SDS011;964;42.606;23.588;2023-07-13T14:25:16;6.57;;;5.43;;
1925;SDS011;964;42.606;23.588;2023-07-13T14:27:44;10.30;;;6.32;;
1925;SDS011;964;42.606;23.588;2023-07-13T14:30:14;6.35;;;5.80;;
1925;SDS011;964;42.606;23.588;2023-07-13T14:32:43;8.57;;;6.35;;
1925;SDS011;964;42.606;23.588;2023-07-13T14:35:12;6.85;;;6.18;;
1925;SDS011;964;42.606;23.588;2023-07-13T14:37:39;11.48;;;5.93;;
1925;SDS011;964;42.606;23.588;2023-07-13T14:40:12;12.40;;;6.30;;
1925;SDS011;964;42.606;23.588;2023-07-13T14:42:39;9.23;;;7.07;;
1925;SDS011;964;42.606;23.588;2023-07-13T14:45:12;7.65;;;6.10;;
1925;SDS011;964;42.606;23.588;2023-07-13T14:47:39;7.45;;;5.93;;
1925;SDS011;964;42.606;23.588;2023-07-13T14:50:13;8.07;;;5.72;;
1925;SDS011;964;42.606;23.588;2023-07-13T14:52:41;11.88;;;6.60;;
1925;SDS011;964;42.606;23.588;2023-07-13T14:55:10;8.55;;;7.00;;
1925;SDS011;964;42.606;23.588;2023-07-13T14:57:37;12.07;;;7.30;;
1925;SDS011;964;42.606;23.588;2023-07-13T15:00:05;8.35;;;6.65;;
1925;SDS011;964;42.606;23.588;2023-07-13T15:02:38;8.98;;;7.13;;
1925;SDS011;964;42.606;23.588;2023-07-13T15:05:09;10.05;;;6.85;;
1925;SDS011;964;42.606;23.588;2023-07-13T15:07:41;9.98;;;6.45;;
1925;SDS011;964;42.606;23.588;2023-07-13T15:10:15;9.43;;;7.05;;
1925;SDS011;964;42.606;23.588;2023-07-13T15:12:43;9.30;;;7.63;;
1925;SDS011;964;42.606;23.588;2023-07-13T15:15:10;13.82;;;7.43;;
1925;SDS011;964;42.606;23.588;2023-07-13T15:17:39;7.10;;;6.38;;
1925;SDS011;964;42.606;23.588;2023-07-13T15:20:13;10.90;;;7.00;;
1925;SDS011;964;42.606;23.588;2023-07-13T15:22:45;9.95;;;7.22;;
1925;SDS011;964;42.606;23.588;2023-07-13T15:25:15;7.20;;;6.53;;